createdAt,value
2023-11-15T00:01:24.600Z,8.00
2023-11-15T00:03:54.825Z,8.90
2023-11-15T00:06:25.236Z,7.97
2023-11-15T00:08:56.035Z,6.65
2023-11-15T00:11:26.346Z,7.97
2023-11-15T00:13:59.301Z,8.57
2023-11-15T00:16:29.718Z,8.80
2023-11-15T00:18:59.898Z,4.10
2023-11-15T00:21:30.379Z,7.03
2023-11-15T00:24:00.610Z,7.53
2023-11-15T00:26:30.906Z,5.65
2023-11-15T00:29:05.060Z,6.78
2023-11-15T00:31:35.964Z,6.40
2023-11-15T00:34:06.603Z,9.18
2023-11-15T00:36:37.197Z,6.22
2023-11-15T00:39:10.153Z,6.82
2023-11-15T00:41:41.158Z,10.38
2023-11-15T00:44:15.837Z,6.45
2023-11-15T00:46:46.621Z,7.90
2023-11-15T00:49:16.815Z,5.15
2023-11-15T00:51:47.005Z,4.63
2023-11-15T00:54:17.950Z,7.00
2023-11-15T00:56:48.284Z,6.07
2023-11-15T00:59:24.063Z,4.15
2023-11-15T01:01:59.781Z,5.82
2023-11-15T01:04:32.159Z,4.80
2023-11-15T01:07:02.979Z,5.90
2023-11-15T01:09:35.493Z,5.63
2023-11-15T01:12:07.567Z,3.72
2023-11-15T01:14:40.532Z,4.43
2023-11-15T01:17:11.520Z,5.30
2023-11-15T01:19:41.721Z,4.15
2023-11-15T01:22:12.912Z,4.38
2023-11-15T01:24:44.457Z,3.38
2023-11-15T01:27:14.705Z,2.65
2023-11-15T01:29:48.055Z,3.30
2023-11-15T01:32:20.614Z,4.80
2023-11-15T01:34:53.701Z,3.03
2023-11-15T01:37:24.399Z,3.58
2023-11-15T01:39:55.076Z,4.07
2023-11-15T01:42:25.294Z,4.32
2023-11-15T01:45:00.173Z,2.75
2023-11-15T01:47:32.749Z,4.55
2023-11-15T01:50:06.227Z,2.90
2023-11-15T01:52:36.546Z,3.72
2023-11-15T01:55:08.643Z,4.13
2023-11-15T01:57:40.364Z,4.30
2023-11-15T02:00:15.856Z,3.40
2023-11-15T02:02:47.543Z,3.10
2023-11-15T02:05:19.114Z,3.38
2023-11-15T02:07:49.774Z,3.38
2023-11-15T02:10:20.635Z,5.45
2023-11-15T02:12:51.121Z,2.67
2023-11-15T02:15:24.333Z,4.53
2023-11-15T02:17:56.042Z,3.13
2023-11-15T02:20:26.799Z,2.92
2023-11-15T02:22:57.676Z,4.45
2023-11-15T02:25:31.007Z,2.72
2023-11-15T02:28:01.809Z,2.15
2023-11-15T02:30:32.003Z,5.38
2023-11-15T02:33:03.464Z,4.28
2023-11-15T02:35:33.906Z,3.25
2023-11-15T02:38:04.177Z,3.13
2023-11-15T02:40:39.743Z,2.78
2023-11-15T02:43:14.713Z,4.10
2023-11-15T02:45:44.979Z,4.25
2023-11-15T02:48:15.461Z,3.05
2023-11-15T02:50:46.181Z,5.80
2023-11-15T02:53:16.535Z,4.90
2023-11-15T02:55:49.773Z,5.75
2023-11-15T02:58:19.975Z,3.85
2023-11-15T03:00:50.695Z,6.55
2023-11-15T03:03:20.961Z,6.38
2023-11-15T03:05:51.473Z,5.57
2023-11-15T03:08:23.475Z,5.20
2023-11-15T03:10:56.777Z,6.28
2023-11-15T03:13:27.241Z,5.68
2023-11-15T03:15:57.574Z,5.78
2023-11-15T03:18:27.950Z,5.93
2023-11-15T03:20:58.243Z,6.30
2023-11-15T03:23:28.855Z,4.55
2023-11-15T03:26:04.629Z,5.68
2023-11-15T03:28:34.927Z,9.70
2023-11-15T03:31:05.756Z,5.72
2023-11-15T03:33:36.127Z,5.45
2023-11-15T03:36:07.299Z,6.40
2023-11-15T03:38:39.020Z,5.95
2023-11-15T03:41:12.169Z,6.88
2023-11-15T03:43:43.638Z,5.75
2023-11-15T03:46:13.889Z,4.00
2023-11-15T03:48:44.076Z,3.90
2023-11-15T03:51:14.368Z,3.45
2023-11-15T03:53:44.725Z,3.80
2023-11-15T03:56:17.680Z,2.80
2023-11-15T03:58:48.197Z,3.00
2023-11-15T04:01:18.860Z,3.35
2023-11-15T04:03:49.819Z,4.22
2023-11-15T04:06:20.617Z,2.47
2023-11-15T04:08:51.094Z,4.15
2023-11-15T04:11:24.043Z,3.17
2023-11-15T04:13:54.397Z,3.33
2023-11-15T04:16:26.139Z,3.95
2023-11-15T04:18:56.376Z,3.83
2023-11-15T04:21:26.772Z,3.25
2023-11-15T04:23:57.962Z,3.22
2023-11-15T04:26:30.850Z,3.33
2023-11-15T04:29:01.042Z,4.85
2023-11-15T04:31:31.315Z,4.28
2023-11-15T04:34:03.547Z,3.58
2023-11-15T04:36:35.667Z,2.83
2023-11-15T04:39:10.537Z,3.83
2023-11-15T04:41:44.798Z,3.45
2023-11-15T04:44:15.046Z,3.35
2023-11-15T04:46:45.315Z,6.15
2023-11-15T04:49:15.557Z,3.50
2023-11-15T04:51:45.755Z,4.15
2023-11-15T04:54:16.265Z,4.53
2023-11-15T04:56:49.146Z,4.50
2023-11-15T04:59:19.583Z,3.80
2023-11-15T05:01:49.776Z,3.55
2023-11-15T05:04:20.037Z,4.00
2023-11-15T05:06:51.317Z,5.90
2023-11-15T05:09:21.621Z,4.72
2023-11-15T05:11:54.691Z,5.97
2023-11-15T05:14:24.967Z,5.85
2023-11-15T05:16:55.178Z,8.35
2023-11-15T05:19:25.373Z,6.25
2023-11-15T05:21:55.578Z,4.80
2023-11-15T05:24:25.707Z,7.30
2023-11-15T05:26:59.213Z,7.22
2023-11-15T05:29:31.001Z,7.03
2023-11-15T05:32:01.296Z,5.78
2023-11-15T05:34:32.094Z,5.10
2023-11-15T05:37:02.251Z,7.32
2023-11-15T05:39:32.618Z,4.63
2023-11-15T05:42:06.593Z,5.97
2023-11-15T05:44:37.970Z,5.32
2023-11-15T05:47:08.459Z,6.07
2023-11-15T05:49:38.666Z,7.03
2023-11-15T05:52:09.678Z,7.15
2023-11-15T05:54:40.005Z,6.07
2023-11-15T05:57:13.367Z,6.55
2023-11-15T05:59:43.880Z,5.25
2023-11-15T06:02:15.295Z,5.97
2023-11-15T06:04:46.037Z,5.72
2023-11-15T06:07:17.994Z,7.47
2023-11-15T06:09:48.951Z,7.30
2023-11-15T06:12:21.901Z,9.27
2023-11-15T06:14:52.192Z,11.57
2023-11-15T06:17:22.520Z,9.70
2023-11-15T06:19:58.530Z,7.82
2023-11-15T06:22:34.807Z,8.90
2023-11-15T06:25:04.996Z,8.32
2023-11-15T06:27:40.025Z,7.25
2023-11-15T06:30:13.884Z,6.50
2023-11-15T06:32:44.878Z,8.10
2023-11-15T06:35:20.336Z,9.23
2023-11-15T06:37:50.990Z,9.63
2023-11-15T06:40:21.599Z,6.80
2023-11-15T06:42:54.446Z,7.22
2023-11-15T06:45:24.690Z,8.48
2023-11-15T06:47:55.220Z,8.35
2023-11-15T06:50:27.380Z,8.85
2023-11-15T06:52:57.591Z,7.80
2023-11-15T06:55:27.799Z,11.23
2023-11-15T06:58:01.327Z,7.82
2023-11-15T07:00:34.457Z,9.55
2023-11-15T07:03:05.521Z,7.20
2023-11-15T07:05:35.804Z,7.80
2023-11-15T07:08:08.412Z,9.18
2023-11-15T07:10:39.005Z,6.60
2023-11-15T07:13:14.235Z,8.75
2023-11-15T07:15:45.801Z,6.07
2023-11-15T07:18:16.129Z,7.00
2023-11-15T07:20:47.153Z,8.68
2023-11-15T07:23:17.964Z,8.43
2023-11-15T07:25:48.161Z,7.53
2023-11-15T07:28:21.214Z,7.50
2023-11-15T07:30:51.799Z,9.50
2023-11-15T07:33:24.114Z,8.57
2023-11-15T07:35:55.959Z,7.38
2023-11-15T07:38:27.925Z,9.15
2023-11-15T07:40:58.291Z,8.55
2023-11-15T07:43:31.304Z,5.93
2023-11-15T07:46:02.930Z,6.28
2023-11-15T07:48:33.234Z,6.88
2023-11-15T07:51:04.563Z,9.45
2023-11-15T07:53:34.940Z,6.53
2023-11-15T07:56:07.648Z,6.18
2023-11-15T07:58:40.628Z,5.47
2023-11-15T08:01:11.781Z,8.40
2023-11-15T08:03:42.742Z,8.88
2023-11-15T08:06:13.402Z,8.27
2023-11-15T08:08:43.888Z,7.43
2023-11-15T08:11:14.119Z,5.50
2023-11-15T08:13:47.862Z,7.65
2023-11-15T08:16:18.899Z,8.45
2023-11-15T08:18:49.291Z,7.78
2023-11-15T08:21:19.823Z,5.22
2023-11-15T08:23:50.074Z,6.28
2023-11-15T08:26:22.991Z,7.68
2023-11-15T08:28:55.897Z,6.95
2023-11-15T08:31:26.303Z,6.88
2023-11-15T08:33:56.664Z,6.22
2023-11-15T08:36:26.927Z,7.25
2023-11-15T08:38:57.119Z,7.03
2023-11-15T08:41:27.539Z,8.45
2023-11-15T08:44:00.332Z,5.47
2023-11-15T08:46:30.605Z,9.38
2023-11-15T08:49:02.132Z,4.78
2023-11-15T08:51:33.516Z,6.88
2023-11-15T08:54:03.732Z,5.43
2023-11-15T08:56:36.439Z,6.13
2023-11-15T08:59:12.599Z,5.72
2023-11-15T09:04:14.637Z,6.88
2023-11-15T09:06:49.062Z,5.40
2023-11-15T09:09:20.345Z,3.33
2023-11-15T09:11:52.569Z,3.85
2023-11-15T09:14:25.406Z,4.72
2023-11-15T09:16:55.760Z,3.80
2023-11-15T09:19:27.136Z,5.03
2023-11-15T09:21:57.574Z,4.00
2023-11-15T09:24:27.954Z,6.13
2023-11-15T09:26:58.220Z,8.25
2023-11-15T09:29:31.500Z,5.45
2023-11-15T09:32:01.765Z,3.58
2023-11-15T09:34:32.137Z,6.25
2023-11-15T09:37:02.420Z,3.58
2023-11-15T09:39:32.644Z,3.53
2023-11-15T09:42:03.331Z,3.75
2023-11-15T09:44:39.175Z,4.25
2023-11-15T09:47:10.703Z,7.60
2023-11-15T09:49:41.828Z,8.00
2023-11-15T09:52:16.667Z,4.90
2023-11-15T09:54:53.254Z,3.35
2023-11-15T09:57:23.866Z,3.70
2023-11-15T10:00:05.393Z,5.43
2023-11-15T10:02:44.617Z,3.92
2023-11-15T10:05:19.809Z,4.88
2023-11-15T10:07:51.961Z,3.55
2023-11-15T10:10:24.063Z,3.53
2023-11-15T10:12:56.072Z,4.20
2023-11-15T10:15:38.153Z,5.03
2023-11-15T10:18:09.628Z,3.78
2023-11-15T10:20:42.745Z,5.53
2023-11-15T10:23:14.955Z,3.42
2023-11-15T10:25:52.599Z,3.35
2023-11-15T10:28:27.447Z,4.88
2023-11-15T10:31:14.172Z,3.08
2023-11-15T10:33:48.620Z,3.05
2023-11-15T10:36:20.685Z,2.85
2023-11-15T10:38:52.853Z,3.58
2023-11-15T10:41:26.400Z,3.65
2023-11-15T10:43:57.914Z,3.97
2023-11-15T10:46:33.203Z,3.53
2023-11-15T10:49:05.111Z,3.27
2023-11-15T10:51:43.828Z,2.35
2023-11-15T10:54:15.673Z,2.90
2023-11-15T10:56:46.637Z,2.88
2023-11-15T10:59:17.109Z,2.65
2023-11-15T11:01:51.315Z,2.00
2023-11-15T11:04:23.452Z,3.95
2023-11-15T11:06:59.720Z,2.25
2023-11-15T11:09:38.424Z,2.92
2023-11-15T11:12:14.126Z,3.95
2023-11-15T11:14:44.553Z,3.08
2023-11-15T11:17:41.770Z,3.42
2023-11-15T11:20:28.318Z,2.72
2023-11-15T11:23:18.933Z,3.85
2023-11-15T11:25:50.317Z,2.28
2023-11-15T11:28:22.369Z,3.53
2023-11-15T11:31:21.033Z,4.15
2023-11-15T11:34:16.363Z,3.30
2023-11-15T11:36:47.029Z,3.08
2023-11-15T11:39:17.336Z,3.92
2023-11-15T11:41:50.660Z,2.75
2023-11-15T11:44:22.852Z,1.92
2023-11-15T11:47:08.221Z,3.00
2023-11-15T11:49:54.133Z,3.25
2023-11-15T11:52:24.545Z,2.65
2023-11-15T11:54:55.512Z,2.95
2023-11-15T11:57:26.530Z,3.70
2023-11-15T12:00:06.205Z,3.03
2023-11-15T12:02:37.840Z,3.25
2023-11-15T12:05:13.218Z,3.30
2023-11-15T12:07:45.968Z,2.00
2023-11-15T12:10:17.107Z,2.85
2023-11-15T12:12:58.289Z,3.33
2023-11-15T12:15:28.756Z,3.17
2023-11-15T12:18:00.817Z,3.17
2023-11-15T12:20:35.162Z,2.95
2023-11-15T12:23:09.559Z,6.20
2023-11-15T12:25:49.386Z,4.00
2023-11-15T12:28:23.056Z,5.00
2023-11-15T12:30:54.134Z,5.82
2023-11-15T12:33:25.214Z,2.85
2023-11-15T12:35:59.209Z,4.05
2023-11-15T12:38:29.501Z,3.45
2023-11-15T12:41:07.706Z,3.25
2023-11-15T12:43:38.397Z,4.65
2023-11-15T12:46:21.777Z,2.70
2023-11-15T12:48:53.913Z,3.72
2023-11-15T12:51:27.218Z,3.70
2023-11-15T12:54:00.587Z,2.70
2023-11-15T12:56:30.851Z,3.70
2023-11-15T12:59:01.143Z,3.13
2023-11-15T13:01:32.054Z,3.60
2023-11-15T13:04:02.523Z,2.13
2023-11-15T13:06:39.799Z,3.67
2023-11-15T13:09:15.839Z,3.88
2023-11-15T13:14:23.510Z,3.80
2023-11-15T13:16:53.923Z,2.88
2023-11-15T13:19:24.943Z,3.50
2023-11-15T13:21:58.451Z,3.50
2023-11-15T13:24:28.728Z,3.72
2023-11-15T13:26:59.138Z,3.95
2023-11-15T13:29:29.388Z,5.22
2023-11-15T13:32:00.680Z,3.28
2023-11-15T13:34:31.069Z,4.50
2023-11-15T13:37:06.041Z,3.95
2023-11-15T13:39:37.167Z,4.40
2023-11-15T13:42:09.423Z,3.13
2023-11-15T13:44:39.983Z,3.33
2023-11-15T13:47:10.939Z,3.90
2023-11-15T13:49:41.391Z,4.18
2023-11-15T13:52:14.482Z,3.67
2023-11-15T13:54:44.833Z,3.95
2023-11-15T13:57:16.341Z,3.88
2023-11-15T13:59:58.736Z,2.67
2023-11-15T14:02:29.981Z,3.58
2023-11-15T14:05:01.596Z,4.30
2023-11-15T14:07:34.391Z,3.88
2023-11-15T14:10:04.591Z,3.65
2023-11-15T14:12:34.974Z,4.55
2023-11-15T14:15:08.502Z,3.92
2023-11-15T14:17:39.592Z,4.35
2023-11-15T14:20:12.331Z,3.78
2023-11-15T14:22:45.799Z,4.47
2023-11-15T14:25:21.591Z,5.05
2023-11-15T14:27:56.385Z,4.28
2023-11-15T14:30:28.384Z,4.50
2023-11-15T14:32:59.066Z,4.50
2023-11-15T14:35:29.934Z,5.22
2023-11-15T14:38:08.594Z,3.70
2023-11-15T14:40:40.137Z,4.20
2023-11-15T14:43:11.324Z,4.25
2023-11-15T14:45:41.560Z,3.80
2023-11-15T14:48:12.010Z,4.82
2023-11-15T14:50:44.957Z,5.78
2023-11-15T14:56:07.578Z,4.97
2023-11-15T14:58:37.754Z,4.88
2023-11-15T15:01:08.480Z,5.72
2023-11-15T15:03:39.271Z,6.38
2023-11-15T15:06:13.702Z,4.70
2023-11-15T15:08:48.256Z,7.05
2023-11-15T15:11:18.691Z,4.95
2023-11-15T15:13:48.944Z,4.40
2023-11-15T15:16:22.978Z,5.35
2023-11-15T15:18:53.502Z,5.07
2023-11-15T15:21:23.837Z,7.53
2023-11-15T15:23:56.670Z,5.03
2023-11-15T15:26:27.015Z,5.55
2023-11-15T15:28:57.509Z,5.10
2023-11-15T15:31:27.677Z,4.82
2023-11-15T15:33:57.840Z,5.05
2023-11-15T15:36:28.864Z,4.10
2023-11-15T15:39:02.576Z,5.05
2023-11-15T15:41:36.233Z,5.03
2023-11-15T15:44:06.691Z,6.80
2023-11-15T15:46:37.405Z,6.95
2023-11-15T15:49:08.266Z,5.80
2023-11-15T15:51:38.533Z,5.75
2023-11-15T15:54:12.594Z,4.95
2023-11-15T15:56:44.812Z,4.70
2023-11-15T15:59:15.078Z,5.00
2023-11-15T16:01:45.423Z,4.60
2023-11-15T16:04:17.019Z,3.35
2023-11-15T16:06:47.201Z,4.05
2023-11-15T16:09:20.432Z,4.60
2023-11-15T16:11:52.033Z,4.30
2023-11-15T16:14:22.254Z,6.82
2023-11-15T16:16:52.535Z,4.28
2023-11-15T16:19:22.842Z,5.00
2023-11-15T16:21:53.087Z,3.63
2023-11-15T16:24:25.954Z,7.63
2023-11-15T16:26:56.160Z,4.90
2023-11-15T16:29:27.021Z,8.60
2023-11-15T16:31:57.196Z,4.90
2023-11-15T16:34:27.470Z,5.38
2023-11-15T16:36:59.900Z,5.97
2023-11-15T16:39:32.765Z,5.95
2023-11-15T16:42:03.307Z,5.70
2023-11-15T16:44:34.894Z,4.70
2023-11-15T16:47:05.518Z,6.65
2023-11-15T16:49:36.131Z,4.85
2023-11-15T16:52:06.668Z,5.90
2023-11-15T16:54:39.474Z,6.00
2023-11-15T16:57:10.438Z,5.03
2023-11-15T16:59:41.102Z,5.70
2023-11-15T17:02:11.292Z,6.13
2023-11-15T17:04:41.528Z,6.00
2023-11-15T17:07:12.110Z,5.80
2023-11-15T17:09:45.026Z,6.47
2023-11-15T17:12:16.133Z,6.47
2023-11-15T17:14:46.594Z,6.55
2023-11-15T17:17:17.771Z,5.47
2023-11-15T17:19:48.997Z,8.65
2023-11-15T17:22:21.458Z,4.90
2023-11-15T17:24:54.359Z,5.63
2023-11-15T17:27:25.373Z,6.55
2023-11-15T17:29:57.866Z,6.82
2023-11-15T17:32:29.939Z,5.15
2023-11-15T17:35:06.864Z,5.57
2023-11-15T17:37:37.154Z,5.68
2023-11-15T17:40:12.430Z,6.82
2023-11-15T17:42:43.049Z,6.20
2023-11-15T17:45:14.660Z,7.15
2023-11-15T17:47:48.285Z,8.57
2023-11-15T17:50:21.602Z,4.97
2023-11-15T17:52:53.060Z,4.60
2023-11-15T17:55:26.590Z,5.75
2023-11-15T17:57:57.823Z,5.28
2023-11-15T18:00:29.736Z,9.32
2023-11-15T18:03:00.198Z,6.13
2023-11-15T18:05:30.617Z,6.38
2023-11-15T18:08:00.927Z,6.38
2023-11-15T18:10:33.801Z,7.60
2023-11-15T18:13:04.174Z,7.57
2023-11-15T18:15:34.932Z,6.63
2023-11-15T18:18:07.066Z,5.50
2023-11-15T18:20:37.680Z,7.50
2023-11-15T18:23:07.890Z,5.93
2023-11-15T18:25:40.803Z,5.60
2023-11-15T18:28:11.106Z,6.82
2023-11-15T18:30:44.060Z,5.70
2023-11-15T18:33:16.534Z,5.70
2023-11-15T18:35:47.236Z,5.80
2023-11-15T18:38:17.463Z,5.93
2023-11-15T18:40:50.300Z,5.82
2023-11-15T18:43:20.496Z,12.07
2023-11-15T18:45:51.129Z,6.85
2023-11-15T18:48:21.444Z,5.68
2023-11-15T18:50:51.974Z,6.07
2023-11-15T18:53:22.307Z,6.10
2023-11-15T18:55:55.223Z,5.13
2023-11-15T18:58:25.467Z,6.53
2023-11-15T19:00:55.754Z,5.70
2023-11-15T19:03:26.284Z,6.45
2023-11-15T19:05:57.208Z,6.68
2023-11-15T19:08:28.245Z,6.03
2023-11-15T19:11:01.153Z,5.75
2023-11-15T19:13:31.447Z,5.65
2023-11-15T19:16:01.835Z,8.07
2023-11-15T19:18:32.234Z,6.57
2023-11-15T19:21:04.624Z,6.22
2023-11-15T19:23:34.884Z,5.47
2023-11-15T19:26:09.315Z,8.45
2023-11-15T19:28:39.623Z,6.93
2023-11-15T19:31:12.879Z,6.82
2023-11-15T19:33:43.735Z,5.95
2023-11-15T19:36:14.468Z,8.63
2023-11-15T19:38:44.937Z,9.52
2023-11-15T19:41:24.677Z,9.93
2023-11-15T19:43:56.264Z,12.82
2023-11-15T19:46:26.660Z,10.23
2023-11-15T19:48:57.058Z,10.65
2023-11-15T19:51:37.394Z,11.05
2023-11-15T19:54:09.653Z,11.43
2023-11-15T19:56:43.549Z,10.18
2023-11-15T19:59:13.873Z,8.95
2023-11-15T20:01:44.168Z,7.50
2023-11-15T20:04:17.260Z,9.05
2023-11-15T20:06:48.971Z,7.05
2023-11-15T20:09:19.796Z,6.72
2023-11-15T20:11:52.654Z,7.38
2023-11-15T20:14:23.032Z,7.03
2023-11-15T20:16:54.385Z,6.80
2023-11-15T20:19:24.959Z,8.00
2023-11-15T20:21:55.920Z,8.95
2023-11-15T20:24:26.266Z,6.05
2023-11-15T20:26:59.170Z,7.13
2023-11-15T20:29:29.400Z,6.38
2023-11-15T20:31:59.728Z,6.45
2023-11-15T20:34:29.919Z,7.70
2023-11-15T20:37:00.580Z,7.97
2023-11-15T20:39:32.404Z,10.02
2023-11-15T20:42:06.154Z,8.43
2023-11-15T20:44:36.460Z,9.43
2023-11-15T20:47:07.123Z,12.00
2023-11-15T20:49:37.416Z,12.32
2023-11-15T20:52:08.406Z,8.13
2023-11-15T20:54:38.627Z,7.07
2023-11-15T20:57:13.770Z,7.13
2023-11-15T20:59:44.893Z,6.05
2023-11-15T21:02:15.633Z,6.57
2023-11-15T21:04:46.332Z,16.35
2023-11-15T21:07:16.837Z,9.82
2023-11-15T21:09:49.006Z,9.18
2023-11-15T21:12:22.963Z,11.00
2023-11-15T21:14:53.269Z,10.10
2023-11-15T21:17:24.063Z,11.68
2023-11-15T21:19:54.403Z,11.93
2023-11-15T21:22:28.446Z,10.13
2023-11-15T21:24:59.448Z,10.38
2023-11-15T21:27:32.294Z,9.15
2023-11-15T21:30:02.584Z,9.90
2023-11-15T21:32:35.535Z,11.35
2023-11-15T21:35:06.324Z,14.95
2023-11-15T21:37:36.617Z,9.93
2023-11-15T21:40:07.321Z,8.60
2023-11-15T21:42:40.214Z,10.40
2023-11-15T21:45:12.522Z,10.00
2023-11-15T21:47:43.404Z,10.85
2023-11-15T21:50:16.503Z,10.32
2023-11-15T21:52:48.977Z,9.18
2023-11-15T21:55:19.361Z,8.52
2023-11-15T21:57:52.238Z,11.07
2023-11-15T22:00:26.961Z,10.23
2023-11-15T22:02:58.993Z,8.60
2023-11-15T22:05:29.170Z,7.53
2023-11-15T22:07:59.497Z,9.15
2023-11-15T22:10:30.649Z,9.63
2023-11-15T22:13:04.802Z,7.57
2023-11-15T22:15:35.099Z,8.80
2023-11-15T22:18:05.500Z,8.23
2023-11-15T22:20:36.759Z,8.43
2023-11-15T22:23:08.611Z,9.35
2023-11-15T22:25:38.797Z,11.38
2023-11-15T22:28:11.809Z,9.93
2023-11-15T22:30:42.433Z,8.52
2023-11-15T22:33:12.767Z,8.57
2023-11-15T22:35:49.538Z,7.20
2023-11-15T22:38:20.608Z,8.43
2023-11-15T22:40:50.948Z,10.65
2023-11-15T22:43:24.047Z,8.35
2023-11-15T22:45:54.333Z,10.35
2023-11-15T22:48:24.640Z,10.85
2023-11-15T22:50:54.823Z,6.95
2023-11-15T22:53:24.969Z,9.45
2023-11-15T22:55:55.155Z,11.07
2023-11-15T22:58:27.988Z,9.38
2023-11-15T23:00:58.292Z,9.98
2023-11-15T23:03:28.722Z,9.93
2023-11-15T23:05:59.451Z,13.75
2023-11-15T23:08:30.141Z,12.07
2023-11-15T23:11:01.413Z,10.90
2023-11-15T23:13:34.651Z,10.40
2023-11-15T23:16:05.193Z,10.05
2023-11-15T23:18:35.435Z,12.98
2023-11-15T23:21:05.749Z,11.43
2023-11-15T23:23:37.573Z,13.07
2023-11-15T23:26:09.551Z,12.65
2023-11-15T23:28:42.372Z,10.38
2023-11-15T23:31:12.641Z,9.75
2023-11-15T23:33:42.876Z,8.77
2023-11-15T23:36:14.012Z,12.45
2023-11-15T23:38:44.566Z,15.70
2023-11-15T23:41:16.432Z,10.00
2023-11-15T23:43:50.923Z,11.88
2023-11-15T23:46:22.161Z,11.90
2023-11-15T23:48:52.402Z,14.88
2023-11-15T23:51:23.790Z,13.65
2023-11-15T23:53:54.060Z,15.75
2023-11-15T23:56:24.246Z,15.93
2023-11-15T23:58:57.415Z,14.57
